createdAt,value
2017-06-19T00:00:09.415Z,20.20
2017-06-19T00:02:37.792Z,20.20
2017-06-19T00:05:06.464Z,20.20
2017-06-19T00:07:34.748Z,20.10
2017-06-19T00:10:03.501Z,20.10
2017-06-19T00:12:32.625Z,20.00
2017-06-19T00:15:00.911Z,20.00
2017-06-19T00:17:29.308Z,20.00
2017-06-19T00:19:57.859Z,20.00
2017-06-19T00:22:26.403Z,19.90
2017-06-19T00:24:54.819Z,19.90
2017-06-19T00:27:23.110Z,19.80
2017-06-19T00:29:51.407Z,19.90
2017-06-19T00:32:19.763Z,19.80
2017-06-19T00:34:48.071Z,19.80
2017-06-19T00:37:18.253Z,19.80
2017-06-19T00:39:46.668Z,19.80
2017-06-19T00:42:15.122Z,19.80
2017-06-19T00:44:44.211Z,19.70
2017-06-19T00:47:12.501Z,19.70
2017-06-19T00:49:40.811Z,19.70
2017-06-19T00:52:09.435Z,19.70
2017-06-19T00:54:37.737Z,19.70
2017-06-19T00:57:06.199Z,19.60
2017-06-19T00:59:34.639Z,19.60
2017-06-19T01:02:03.044Z,19.60
2017-06-19T01:04:32.097Z,19.60
2017-06-19T01:07:00.588Z,19.60
2017-06-19T01:09:28.893Z,19.60
2017-06-19T01:11:57.309Z,19.60
2017-06-19T01:14:25.603Z,19.50
2017-06-19T01:16:54.119Z,19.50
2017-06-19T01:19:22.395Z,19.50
2017-06-19T01:21:51.448Z,19.40
2017-06-19T01:24:20.882Z,19.40
2017-06-19T01:26:49.415Z,19.40
2017-06-19T01:29:17.850Z,19.40
2017-06-19T01:31:46.127Z,19.40
2017-06-19T01:34:14.493Z,19.40
2017-06-19T01:36:42.789Z,19.30
2017-06-19T01:39:11.270Z,19.30
2017-06-19T01:41:39.728Z,19.30
2017-06-19T01:44:08.854Z,19.20
2017-06-19T01:46:37.236Z,19.20
2017-06-19T01:49:05.657Z,19.20
2017-06-19T01:51:34.011Z,19.20
2017-06-19T01:54:02.439Z,19.10
2017-06-19T01:56:30.872Z,19.10
2017-06-19T01:58:59.160Z,19.10
2017-06-19T02:01:27.631Z,19.00
2017-06-19T02:03:55.957Z,19.00
2017-06-19T02:06:24.361Z,19.00
2017-06-19T02:08:52.719Z,19.00
2017-06-19T02:11:21.179Z,18.90
2017-06-19T02:13:49.576Z,18.90
2017-06-19T02:16:18.892Z,18.90
2017-06-19T02:18:47.173Z,18.90
2017-06-19T02:21:15.899Z,18.80
2017-06-19T02:23:44.191Z,18.80
2017-06-19T02:26:12.623Z,18.80
2017-06-19T02:28:41.232Z,18.80
2017-06-19T02:31:09.547Z,18.80
2017-06-19T02:33:39.015Z,18.70
2017-06-19T02:36:07.381Z,18.70
2017-06-19T02:38:35.743Z,18.60
2017-06-19T02:41:04.032Z,18.60
2017-06-19T02:43:33.083Z,18.60
2017-06-19T02:46:01.368Z,18.60
2017-06-19T02:48:29.655Z,18.60
2017-06-19T02:50:57.935Z,18.60
2017-06-19T02:53:26.857Z,18.60
2017-06-19T02:55:55.163Z,18.50
2017-06-19T02:58:23.451Z,18.50
2017-06-19T03:00:51.820Z,18.50
2017-06-19T03:03:20.200Z,18.50
2017-06-19T03:05:48.495Z,18.50
2017-06-19T03:08:16.994Z,18.40
2017-06-19T03:10:45.320Z,18.40
2017-06-19T03:13:14.491Z,18.40
2017-06-19T03:15:43.008Z,18.40
2017-06-19T03:18:11.555Z,18.40
2017-06-19T03:20:39.873Z,18.40
2017-06-19T03:23:08.438Z,18.40
2017-06-19T03:25:36.736Z,18.40
2017-06-19T03:28:05.875Z,18.40
2017-06-19T03:30:34.181Z,18.30
2017-06-19T03:33:03.296Z,18.40
2017-06-19T03:35:31.619Z,18.40
2017-06-19T03:38:00.768Z,18.40
2017-06-19T03:40:29.044Z,18.40
2017-06-19T03:42:57.575Z,18.50
2017-06-19T03:45:26.899Z,18.50
2017-06-19T03:47:56.259Z,18.50
2017-06-19T03:50:24.626Z,18.40
2017-06-19T03:52:52.964Z,18.50
2017-06-19T03:55:21.227Z,18.50
2017-06-19T03:57:49.639Z,18.50
2017-06-19T04:00:17.912Z,18.50
2017-06-19T04:02:46.247Z,18.50
2017-06-19T04:05:14.551Z,18.50
2017-06-19T04:07:42.830Z,18.50
2017-06-19T04:10:11.130Z,18.50
2017-06-19T04:12:39.409Z,18.50
2017-06-19T04:15:07.747Z,18.60
2017-06-19T04:17:36.747Z,18.60
2017-06-19T04:20:05.090Z,18.60
2017-06-19T04:22:33.555Z,18.60
2017-06-19T04:25:02.035Z,18.60
2017-06-19T04:27:30.542Z,18.70
2017-06-19T04:29:58.843Z,18.70
2017-06-19T04:32:27.185Z,18.70
2017-06-19T04:34:56.391Z,18.70
2017-06-19T04:37:25.417Z,18.80
2017-06-19T04:39:54.579Z,18.80
2017-06-19T04:42:23.027Z,18.80
2017-06-19T04:44:51.598Z,18.80
2017-06-19T04:47:19.963Z,18.80
2017-06-19T04:49:48.234Z,18.80
2017-06-19T04:52:16.608Z,18.90
2017-06-19T04:54:44.941Z,18.90
2017-06-19T04:57:13.244Z,19.00
2017-06-19T04:59:42.491Z,19.20
2017-06-19T05:02:10.964Z,19.10
2017-06-19T05:04:39.322Z,19.20
2017-06-19T05:07:07.883Z,19.30
2017-06-19T05:09:36.588Z,19.30
2017-06-19T05:12:04.881Z,19.30
2017-06-19T05:14:33.262Z,19.40
2017-06-19T05:17:01.555Z,19.40
2017-06-19T05:19:30.111Z,19.50
2017-06-19T05:21:58.583Z,19.50
2017-06-19T05:24:27.092Z,19.60
2017-06-19T05:26:55.367Z,19.60
2017-06-19T05:29:23.985Z,19.70
2017-06-19T05:31:52.344Z,19.80
2017-06-19T05:34:20.702Z,19.80
2017-06-19T05:36:49.111Z,19.90
2017-06-19T05:39:18.297Z,20.00
2017-06-19T05:41:47.384Z,20.00
2017-06-19T05:44:15.834Z,20.00
2017-06-19T05:46:44.896Z,20.20
2017-06-19T05:49:13.274Z,20.20
2017-06-19T05:51:42.431Z,20.30
2017-06-19T05:54:10.907Z,20.30
2017-06-19T05:56:39.555Z,20.40
2017-06-19T05:59:07.962Z,20.50
2017-06-19T06:01:36.288Z,20.50
2017-06-19T06:04:04.579Z,20.60
2017-06-19T06:06:33.728Z,20.70
2017-06-19T06:09:02.147Z,20.70
2017-06-19T06:11:30.427Z,20.80
2017-06-19T06:13:58.908Z,20.80
2017-06-19T06:16:27.247Z,20.90
2017-06-19T06:18:55.539Z,21.00
2017-06-19T06:21:23.896Z,21.10
2017-06-19T06:23:52.313Z,21.10
2017-06-19T06:26:20.612Z,21.20
2017-06-19T06:28:48.975Z,21.30
2017-06-19T06:31:17.263Z,21.30
2017-06-19T06:33:45.553Z,21.40
2017-06-19T06:36:14.611Z,21.60
2017-06-19T06:38:42.923Z,21.60
2017-06-19T06:41:11.207Z,21.70
2017-06-19T06:43:39.523Z,21.80
2017-06-19T06:46:08.723Z,21.90
2017-06-19T06:48:37.396Z,21.90
2017-06-19T06:51:05.729Z,22.00
2017-06-19T06:53:34.144Z,22.10
2017-06-19T06:56:02.448Z,22.20
2017-06-19T06:58:30.736Z,22.20
2017-06-19T07:00:59.774Z,22.30
2017-06-19T07:03:28.059Z,22.30
2017-06-19T07:05:57.102Z,22.40
2017-06-19T07:08:25.478Z,22.40
2017-06-19T07:10:53.796Z,22.50
2017-06-19T07:13:22.890Z,22.60
2017-06-19T07:15:51.196Z,22.60
2017-06-19T07:18:19.491Z,22.70
2017-06-19T07:20:48.544Z,22.80
2017-06-19T07:23:17.066Z,22.80
2017-06-19T07:25:45.455Z,22.90
2017-06-19T07:28:13.753Z,23.00
2017-06-19T07:30:42.292Z,22.90
2017-06-19T07:33:11.154Z,23.00
2017-06-19T07:35:40.364Z,23.10
2017-06-19T07:38:10.347Z,23.20
2017-06-19T07:40:38.699Z,23.20
2017-06-19T07:43:06.990Z,23.30
2017-06-19T07:45:36.159Z,23.40
2017-06-19T07:48:04.454Z,23.40
2017-06-19T07:50:32.893Z,23.50
2017-06-19T07:53:01.339Z,23.50
2017-06-19T07:55:29.751Z,23.50
2017-06-19T07:57:58.106Z,23.60
2017-06-19T08:00:26.711Z,23.70
2017-06-19T08:02:55.048Z,23.70
2017-06-19T08:05:23.355Z,23.80
2017-06-19T08:07:51.955Z,24.00
2017-06-19T08:10:20.443Z,24.00
2017-06-19T08:12:49.091Z,24.00
2017-06-19T08:15:18.351Z,24.20
2017-06-19T08:17:46.720Z,24.20
2017-06-19T08:20:15.448Z,24.20
2017-06-19T08:22:43.895Z,24.20
2017-06-19T08:25:12.238Z,24.20
2017-06-19T08:27:40.580Z,24.30
2017-06-19T08:30:09.795Z,24.50
2017-06-19T08:32:38.343Z,24.40
2017-06-19T08:35:06.963Z,24.50
2017-06-19T08:37:35.249Z,24.60
2017-06-19T08:40:03.543Z,24.60
2017-06-19T08:42:31.839Z,24.70
2017-06-19T08:45:00.290Z,24.60
2017-06-19T08:47:28.613Z,24.60
2017-06-19T08:49:56.922Z,24.70
2017-06-19T08:52:25.965Z,24.80
2017-06-19T08:54:54.298Z,24.70
2017-06-19T08:57:22.562Z,24.80
2017-06-19T08:59:50.867Z,24.90
2017-06-19T09:02:19.168Z,24.90
2017-06-19T09:04:47.446Z,24.90
2017-06-19T09:07:15.767Z,24.80
2017-06-19T09:09:44.143Z,24.90
2017-06-19T09:12:12.501Z,25.00
2017-06-19T09:14:40.895Z,25.10
2017-06-19T09:17:09.219Z,25.40
2017-06-19T09:19:37.564Z,25.40
2017-06-19T09:22:05.904Z,25.40
2017-06-19T09:24:34.220Z,25.40
2017-06-19T09:27:02.519Z,25.40
2017-06-19T09:29:30.795Z,25.50
2017-06-19T09:31:59.152Z,25.50
2017-06-19T09:34:27.439Z,25.50
2017-06-19T09:36:55.825Z,25.60
2017-06-19T09:39:24.849Z,25.70
2017-06-19T09:41:53.125Z,25.70
2017-06-19T09:44:21.416Z,25.70
2017-06-19T09:46:49.696Z,25.80
2017-06-19T09:49:18.103Z,25.70
2017-06-19T09:51:46.505Z,25.80
2017-06-19T09:54:14.787Z,25.90
2017-06-19T09:56:43.061Z,26.10
2017-06-19T09:59:11.377Z,26.10
2017-06-19T10:01:40.153Z,26.20
2017-06-19T10:04:09.103Z,26.20
2017-06-19T10:06:37.368Z,26.20
2017-06-19T10:09:05.664Z,26.20
2017-06-19T10:11:33.977Z,26.10
2017-06-19T10:14:02.386Z,26.20
2017-06-19T10:16:30.853Z,26.20
2017-06-19T10:18:59.953Z,26.50
2017-06-19T10:21:29.139Z,26.50
2017-06-19T10:23:57.416Z,26.40
2017-06-19T10:26:25.814Z,26.50
2017-06-19T10:28:55.007Z,26.60
2017-06-19T10:31:23.342Z,26.60
2017-06-19T10:33:51.635Z,26.60
2017-06-19T10:36:19.948Z,26.50
2017-06-19T10:38:48.823Z,26.50
2017-06-19T10:41:17.139Z,26.50
2017-06-19T10:43:45.479Z,26.60
2017-06-19T10:46:13.751Z,26.70
2017-06-19T10:48:42.087Z,26.80
2017-06-19T10:51:10.384Z,26.90
2017-06-19T10:53:38.663Z,26.90
2017-06-19T10:56:06.960Z,26.80
2017-06-19T10:58:35.242Z,26.90
2017-06-19T11:01:03.535Z,26.90
2017-06-19T11:03:31.830Z,26.90
2017-06-19T11:06:00.106Z,26.90
2017-06-19T11:08:28.435Z,26.90
2017-06-19T11:10:56.730Z,27.00
2017-06-19T11:13:25.021Z,27.20
2017-06-19T11:15:53.425Z,27.20
2017-06-19T11:18:22.551Z,27.10
2017-06-19T11:20:50.856Z,27.10
2017-06-19T11:23:19.187Z,27.10
2017-06-19T11:25:47.537Z,27.10
2017-06-19T11:28:15.955Z,27.00
2017-06-19T11:30:44.315Z,27.10
2017-06-19T11:33:13.396Z,27.30
2017-06-19T11:35:42.461Z,27.20
2017-06-19T11:38:10.815Z,27.10
2017-06-19T11:40:39.107Z,27.30
2017-06-19T11:43:07.399Z,27.40
2017-06-19T11:45:35.686Z,27.60
2017-06-19T11:48:04.159Z,27.70
2017-06-19T11:50:32.449Z,27.70
2017-06-19T11:53:00.919Z,27.50
2017-06-19T11:55:29.987Z,27.70
2017-06-19T11:57:58.334Z,27.70
2017-06-19T12:00:26.657Z,27.70
2017-06-19T12:02:54.938Z,27.90
2017-06-19T12:05:23.259Z,27.80
2017-06-19T12:07:51.543Z,27.90
2017-06-19T12:10:19.837Z,27.90
2017-06-19T12:12:48.349Z,27.90
2017-06-19T12:15:17.415Z,28.10
2017-06-19T12:17:46.451Z,28.00
2017-06-19T12:20:14.779Z,28.00
2017-06-19T12:22:43.102Z,28.00
2017-06-19T12:25:11.388Z,28.20
2017-06-19T12:27:39.723Z,28.20
2017-06-19T12:30:08.066Z,28.40
2017-06-19T12:32:36.378Z,28.50
2017-06-19T12:35:05.529Z,28.50
2017-06-19T12:37:33.830Z,28.50
2017-06-19T12:40:02.121Z,28.60
2017-06-19T12:42:30.550Z,28.70
2017-06-19T12:44:58.826Z,28.60
2017-06-19T12:47:27.117Z,28.60
2017-06-19T12:49:55.578Z,28.50
2017-06-19T12:52:23.879Z,28.50
2017-06-19T12:54:52.161Z,28.60
2017-06-19T12:57:20.512Z,28.90
2017-06-19T12:59:49.571Z,29.10
2017-06-19T13:02:17.881Z,29.10
2017-06-19T13:04:47.059Z,28.90
2017-06-19T13:07:16.175Z,29.00
2017-06-19T13:09:44.559Z,29.00
2017-06-19T13:12:12.950Z,29.00
2017-06-19T13:14:41.431Z,29.10
2017-06-19T13:17:09.911Z,29.20
2017-06-19T13:19:38.467Z,29.30
2017-06-19T13:22:06.749Z,29.40
2017-06-19T13:24:35.381Z,29.40
2017-06-19T13:27:03.652Z,29.40
2017-06-19T13:29:31.978Z,29.60
2017-06-19T13:32:00.337Z,29.70
2017-06-19T13:34:28.612Z,29.80
2017-06-19T13:36:56.906Z,29.80
2017-06-19T13:39:25.222Z,29.80
2017-06-19T13:41:53.830Z,29.60
2017-06-19T13:44:22.871Z,29.50
2017-06-19T13:46:51.449Z,29.50
2017-06-19T13:49:19.754Z,29.60
2017-06-19T13:51:48.108Z,29.70
2017-06-19T13:54:16.415Z,29.70
2017-06-19T13:56:44.757Z,29.60
2017-06-19T13:59:13.060Z,29.70
2017-06-19T14:01:41.342Z,29.80
2017-06-19T14:04:10.507Z,30.10
2017-06-19T14:06:38.871Z,30.00
2017-06-19T14:09:07.304Z,30.10
2017-06-19T14:11:35.615Z,30.10
2017-06-19T14:14:04.157Z,30.10
2017-06-19T14:16:32.450Z,30.20
2017-06-19T14:19:00.744Z,30.30
2017-06-19T14:21:29.078Z,30.30
2017-06-19T14:23:57.362Z,30.50
2017-06-19T14:26:26.523Z,30.50
2017-06-19T14:28:54.792Z,30.40
2017-06-19T14:31:23.078Z,30.40
2017-06-19T14:33:51.688Z,30.20
2017-06-19T14:36:19.980Z,30.10
2017-06-19T14:38:49.017Z,30.20
2017-06-19T14:41:17.437Z,30.20
2017-06-19T14:43:45.707Z,30.40
2017-06-19T14:46:14.240Z,30.50
2017-06-19T14:48:43.286Z,30.70
2017-06-19T14:51:11.762Z,30.70
2017-06-19T14:53:40.041Z,30.80
2017-06-19T14:56:08.344Z,30.90
2017-06-19T14:58:36.753Z,30.90
2017-06-19T15:01:05.103Z,30.90
2017-06-19T15:03:33.386Z,31.10
2017-06-19T15:06:01.670Z,31.10
2017-06-19T15:08:30.747Z,30.90
2017-06-19T15:10:59.891Z,30.90
2017-06-19T15:13:28.191Z,30.90
2017-06-19T15:15:57.231Z,31.20
2017-06-19T15:18:25.563Z,31.20
2017-06-19T15:20:59.499Z,31.40
2017-06-19T15:23:27.795Z,31.50
2017-06-19T15:25:56.840Z,31.80
2017-06-19T15:28:25.191Z,31.80
2017-06-19T15:30:53.658Z,31.90
2017-06-19T15:33:22.065Z,32.00
2017-06-19T15:35:50.508Z,32.00
2017-06-19T15:38:18.799Z,32.10
2017-06-19T15:40:47.087Z,32.10
2017-06-19T15:43:15.532Z,32.20
2017-06-19T15:45:43.795Z,32.40
2017-06-19T15:48:12.119Z,32.60
2017-06-19T15:50:40.612Z,32.70
2017-06-19T15:53:09.354Z,32.60
2017-06-19T15:55:37.639Z,32.60
2017-06-19T15:58:06.680Z,32.50
2017-06-19T16:00:35.203Z,32.50
2017-06-19T16:03:03.470Z,32.50
2017-06-19T16:05:31.871Z,32.50
2017-06-19T16:08:00.134Z,32.60
2017-06-19T16:10:28.455Z,32.70
2017-06-19T16:12:56.751Z,32.70
2017-06-19T16:15:25.030Z,32.70
2017-06-19T16:17:53.319Z,33.10
2017-06-19T16:20:22.384Z,33.20
2017-06-19T16:22:50.668Z,33.20
2017-06-19T16:25:19.715Z,33.40
2017-06-19T16:27:48.090Z,33.30
2017-06-19T16:30:16.551Z,33.20
2017-06-19T16:32:45.056Z,33.40
2017-06-19T16:35:13.407Z,33.50
2017-06-19T16:37:41.719Z,33.40
2017-06-19T16:40:09.981Z,33.30
2017-06-19T16:42:38.348Z,33.30
2017-06-19T16:45:06.617Z,33.30
2017-06-19T16:47:35.602Z,33.50
2017-06-19T16:50:03.925Z,33.40
2017-06-19T16:52:32.629Z,33.60
2017-06-19T16:55:01.072Z,33.50
2017-06-19T16:57:29.365Z,33.50
2017-06-19T16:59:57.659Z,33.40
2017-06-19T17:02:25.963Z,33.50
2017-06-19T17:04:54.251Z,33.60
2017-06-19T17:07:22.595Z,33.70
2017-06-19T17:09:51.159Z,33.90
2017-06-19T17:12:19.471Z,33.80
2017-06-19T17:14:47.767Z,33.90
2017-06-19T17:17:16.177Z,33.70
2017-06-19T17:19:44.451Z,33.60
2017-06-19T17:22:12.760Z,33.50
2017-06-19T17:24:41.042Z,33.30
2017-06-19T17:27:09.361Z,33.40
2017-06-19T17:29:37.803Z,33.50
2017-06-19T17:32:06.156Z,33.60
2017-06-19T17:34:35.391Z,33.90
2017-06-19T17:37:03.803Z,33.90
2017-06-19T17:39:32.074Z,33.90
2017-06-19T17:42:00.600Z,33.90
2017-06-19T17:44:28.895Z,33.90
2017-06-19T17:46:57.940Z,33.80
2017-06-19T17:49:26.215Z,33.80
2017-06-19T17:51:54.503Z,33.80
2017-06-19T17:54:22.964Z,33.70
2017-06-19T17:56:52.113Z,33.90
2017-06-19T17:59:20.491Z,33.90
2017-06-19T18:01:48.802Z,33.80
2017-06-19T18:04:17.535Z,33.50
2017-06-19T18:06:45.825Z,33.40
2017-06-19T18:09:14.115Z,33.30
2017-06-19T18:11:42.442Z,33.30
2017-06-19T18:14:11.499Z,33.40
2017-06-19T18:16:39.769Z,33.40
2017-06-19T18:19:08.823Z,33.30
2017-06-19T18:21:37.108Z,33.20
2017-06-19T18:24:06.169Z,33.00
2017-06-19T18:26:34.442Z,32.90
2017-06-19T18:29:02.785Z,32.90
2017-06-19T18:31:31.159Z,32.70
2017-06-19T18:33:59.447Z,32.80
2017-06-19T18:36:27.740Z,32.70
2017-06-19T18:38:56.013Z,32.50
2017-06-19T18:41:24.403Z,32.40
2017-06-19T18:43:52.699Z,32.40
2017-06-19T18:46:21.750Z,32.00
2017-06-19T18:48:50.048Z,32.00
2017-06-19T18:51:18.419Z,31.70
2017-06-19T18:53:46.693Z,31.50
2017-06-19T18:56:17.433Z,31.30
2017-06-19T18:58:45.709Z,31.10
2017-06-19T19:01:14.003Z,30.90
2017-06-19T19:03:43.064Z,30.50
2017-06-19T19:06:11.406Z,30.50
2017-06-19T19:08:39.825Z,30.40
2017-06-19T19:11:08.842Z,30.00
2017-06-19T19:13:37.320Z,30.00
2017-06-19T19:16:05.594Z,29.90
2017-06-19T19:18:34.159Z,29.70
2017-06-19T19:21:02.442Z,29.60
2017-06-19T19:23:31.601Z,29.20
2017-06-19T19:25:59.970Z,29.20
2017-06-19T19:28:28.271Z,29.10
2017-06-19T19:30:56.605Z,29.00
2017-06-19T19:33:24.907Z,28.90
2017-06-19T19:35:53.194Z,28.70
2017-06-19T19:38:21.670Z,28.60
2017-06-19T19:40:49.999Z,28.40
2017-06-19T19:43:18.282Z,28.30
2017-06-19T19:45:46.729Z,28.10
2017-06-19T19:48:14.999Z,28.00
2017-06-19T19:50:43.302Z,27.90
2017-06-19T19:53:11.577Z,27.70
2017-06-19T19:55:40.626Z,27.50
2017-06-19T19:58:08.908Z,27.50
2017-06-19T20:00:37.225Z,27.40
2017-06-19T20:03:05.487Z,27.30
2017-06-19T20:05:33.839Z,27.20
2017-06-19T20:08:02.196Z,27.10
2017-06-19T20:10:30.639Z,27.00
2017-06-19T20:12:58.945Z,26.80
2017-06-19T20:15:28.040Z,26.70
2017-06-19T20:17:56.431Z,26.70
2017-06-19T20:20:25.495Z,26.50
2017-06-19T20:22:53.779Z,26.50
2017-06-19T20:25:22.828Z,26.40
2017-06-19T20:27:51.222Z,26.40
2017-06-19T20:30:19.599Z,26.30
2017-06-19T20:32:48.166Z,26.30
2017-06-19T20:35:16.649Z,26.20
2017-06-19T20:37:44.957Z,26.10
2017-06-19T20:40:13.248Z,26.10
2017-06-19T20:42:41.566Z,26.00
2017-06-19T20:45:09.858Z,25.90
2017-06-19T20:47:39.218Z,25.80
2017-06-19T20:50:08.402Z,25.70
2017-06-19T20:52:36.689Z,25.70
2017-06-19T20:55:04.978Z,25.70
2017-06-19T20:57:33.253Z,25.60
2017-06-19T21:00:01.607Z,25.50
2017-06-19T21:02:30.069Z,25.50
2017-06-19T21:04:58.367Z,25.50
2017-06-19T21:07:26.647Z,25.40
2017-06-19T21:09:55.078Z,25.30
2017-06-19T21:12:23.359Z,25.30
2017-06-19T21:14:51.720Z,25.30
2017-06-19T21:17:19.998Z,25.20
2017-06-19T21:19:48.563Z,25.10
2017-06-19T21:22:16.853Z,25.00
2017-06-19T21:24:45.263Z,25.00
2017-06-19T21:27:13.595Z,25.00
2017-06-19T21:29:41.880Z,24.90
2017-06-19T21:32:10.199Z,24.90
2017-06-19T21:34:38.541Z,24.90
2017-06-19T21:37:06.820Z,24.80
2017-06-19T21:39:35.951Z,24.70
2017-06-19T21:42:04.343Z,24.70
2017-06-19T21:44:32.640Z,24.70
2017-06-19T21:47:00.954Z,24.60
2017-06-19T21:49:29.250Z,24.60
2017-06-19T21:51:57.560Z,24.50
2017-06-19T21:54:25.851Z,24.50
2017-06-19T21:56:54.926Z,24.40
2017-06-19T21:59:23.236Z,24.40
2017-06-19T22:01:52.279Z,24.30
2017-06-19T22:04:20.582Z,24.30
2017-06-19T22:06:48.895Z,24.30
2017-06-19T22:09:17.197Z,24.20
2017-06-19T22:11:45.732Z,24.20
2017-06-19T22:14:14.024Z,24.20
2017-06-19T22:16:42.302Z,24.10
2017-06-19T22:19:10.614Z,24.10
2017-06-19T22:21:45.251Z,24.00
2017-06-19T22:24:13.791Z,24.00
2017-06-19T22:26:42.187Z,24.00
2017-06-19T22:29:11.417Z,23.90
2017-06-19T22:31:39.738Z,23.90
2017-06-19T22:34:08.051Z,23.80
2017-06-19T22:36:36.467Z,23.80
2017-06-19T22:39:04.761Z,23.80
2017-06-19T22:41:33.051Z,23.80
2017-06-19T22:44:01.348Z,23.80
2017-06-19T22:46:30.594Z,23.60
2017-06-19T22:48:58.910Z,23.60
2017-06-19T22:51:27.237Z,23.60
2017-06-19T22:53:55.507Z,23.60
2017-06-19T22:56:24.572Z,23.50
2017-06-19T22:58:52.866Z,23.50
2017-06-19T23:01:21.919Z,23.50
2017-06-19T23:03:50.287Z,23.50
2017-06-19T23:06:18.706Z,23.50
2017-06-19T23:08:47.030Z,23.40
2017-06-19T23:11:15.301Z,23.40
2017-06-19T23:13:43.788Z,23.40
2017-06-19T23:16:12.080Z,23.30
2017-06-19T23:18:40.393Z,23.30
2017-06-19T23:21:08.673Z,23.30
2017-06-19T23:23:36.968Z,23.30
2017-06-19T23:26:05.369Z,23.20
2017-06-19T23:28:34.424Z,23.20
2017-06-19T23:31:02.715Z,23.20
2017-06-19T23:33:31.758Z,23.10
2017-06-19T23:36:00.213Z,23.10
2017-06-19T23:38:28.522Z,23.10
2017-06-19T23:40:56.792Z,23.10
2017-06-19T23:43:25.071Z,23.00
2017-06-19T23:45:53.362Z,23.00
2017-06-19T23:48:21.648Z,23.00
2017-06-19T23:50:50.642Z,23.00
2017-06-19T23:53:18.898Z,22.90
2017-06-19T23:55:47.235Z,22.90
2017-06-19T23:58:15.527Z,22.80
